Time;durP1;ratioP1;P1;durP2;ratioP2;P2;SDS_P1;SDS_P2;PMS_P1;PMS_P2;Temp;Humidity;BMP_temperature;BMP_pressure;BME280_temperature;BME280_humidity;BME280_pressure;Samples;Min_cycle;Max_cycle;Signal;HPM_P1;HPM_P2
2022/01/02 00:00:18;;;;;;;70.00;58.60;;;;;;;8.67;95.93;98674.73;109639;1273;22427;-63
2022/01/02 00:03:08;;;;;;;69.50;61.80;;;;;;;8.66;95.76;98672.64;109565;1274;138238;-63
2022/01/02 00:05:52;;;;;;;58.40;52.40;;;;;;;8.66;95.50;98664.15;109592;1274;22396;-63
2022/01/02 00:08:39;;;;;;;50.40;45.30;;;;;;;8.66;95.47;98660.71;109651;1274;22417;-63
2022/01/02 00:11:25;;;;;;;54.20;48.80;;;;;;;8.65;95.68;98658.02;109660;1274;23146;-64
2022/01/02 00:14:16;;;;;;;75.10;52.20;;;;;;;8.66;96.28;98658.73;109615;1274;22498;-64
2022/01/02 00:16:52;;;;;;;57.30;51.80;;;;;;;8.68;96.04;98657.42;109586;1276;22547;-64
2022/01/02 00:19:30;;;;;;;53.90;48.50;;;;;;;8.70;96.04;98658.09;109537;1274;23154;-63
2022/01/02 00:22:02;;;;;;;55.40;50.20;;;;;;;8.74;95.87;98659.05;109635;1274;22337;-64
2022/01/02 00:24:31;;;;;;;54.10;49.10;;;;;;;8.75;95.66;98658.94;109546;1274;22899;-65
2022/01/02 00:26:59;;;;;;;58.40;52.10;;;;;;;8.75;95.76;98656.48;109640;1274;22411;-65
2022/01/02 00:29:28;;;;;;;61.80;55.10;;;;;;;8.74;95.89;98657.92;109609;1274;23301;-64
2022/01/02 00:31:56;;;;;;;68.40;52.50;;;;;;;8.73;96.04;98657.69;109623;1273;22542;-65
2022/01/02 00:34:25;;;;;;;58.50;52.50;;;;;;;8.73;95.70;98651.67;109440;1274;138217;-65
2022/01/02 00:36:53;;;;;;;56.20;50.70;;;;;;;8.72;95.59;98652.55;109631;1274;22497;-64
2022/01/02 00:39:21;;;;;;;60.10;53.00;;;;;;;8.70;95.68;98654.20;109615;1274;23564;-64
2022/01/02 00:42:09;;;;;;;72.80;57.00;;;;;;;8.67;95.48;98663.08;109631;1274;22432;-64
2022/01/02 00:45:15;;;;;;;96.50;58.90;;;;;;;8.63;95.90;98658.02;109634;1274;22385;-64
2022/01/02 00:48:09;;;;;;;74.60;57.40;;;;;;;8.58;96.11;98665.05;109242;1274;22471;-64
2022/01/02 00:50:42;;;;;;;62.30;56.10;;;;;;;8.54;95.98;98666.71;109644;1274;23227;-65
2022/01/02 00:53:12;;;;;;;64.40;58.30;;;;;;;8.53;95.73;98666.34;109607;1274;22482;-64
2022/01/02 00:55:42;;;;;;;70.20;61.90;;;;;;;8.51;95.93;98671.98;109643;1274;22586;-65
2022/01/02 00:58:13;;;;;;;69.70;61.80;;;;;;;8.52;95.94;98664.13;109608;1274;22526;-64
2022/01/02 01:00:48;;;;;;;72.50;64.70;;;;;;;8.53;95.74;98664.23;109537;1274;22470;-65
2022/01/02 01:03:23;;;;;;;134.70;69.80;;;;;;;8.51;95.86;98657.57;109524;1274;22448;-64
2022/01/02 01:05:53;;;;;;;79.60;67.90;;;;;;;8.47;95.72;98654.83;109612;1274;22437;-64
2022/01/02 01:08:23;;;;;;;75.60;67.60;;;;;;;8.46;95.96;98649.14;109624;1274;22462;-64
2022/01/02 01:10:51;;;;;;;74.90;67.60;;;;;;;8.48;96.10;98640.55;109617;1274;22489;-64
2022/01/02 01:13:19;;;;;;;76.90;68.90;;;;;;;8.51;96.07;98639.04;109664;1274;22570;-64
2022/01/02 01:15:48;;;;;;;76.80;68.50;;;;;;;8.53;96.06;98639.25;109659;1274;22359;-64
2022/01/02 01:18:16;;;;;;;77.10;69.30;;;;;;;8.53;95.82;98641.85;109654;1274;22455;-64
2022/01/02 01:20:45;;;;;;;85.40;70.90;;;;;;;8.57;96.03;98633.84;109668;1274;22577;-64
2022/01/02 01:23:17;;;;;;;115.50;76.40;;;;;;;8.57;95.91;98631.41;109592;1274;22339;-65
2022/01/02 01:25:48;;;;;;;87.10;73.90;;;;;;;8.56;95.98;98632.77;109662;1274;22450;-64
2022/01/02 01:28:17;;;;;;;80.90;72.50;;;;;;;8.55;95.82;98632.55;109490;1276;22619;-64
2022/01/02 01:30:48;;;;;;;80.10;71.60;;;;;;;8.53;96.05;98634.21;109577;1274;22541;-64
2022/01/02 01:33:16;;;;;;;84.50;72.10;;;;;;;8.52;96.18;98632.44;109464;1277;23113;-64
2022/01/02 01:35:44;;;;;;;86.20;75.50;;;;;;;8.51;95.99;98627.98;109668;1274;23631;-64
2022/01/02 01:38:13;;;;;;;107.00;75.70;;;;;;;8.53;95.97;98621.05;109564;1274;22489;-64
2022/01/02 01:41:09;;;;;;;80.70;72.10;;;;;;;8.54;96.23;98615.52;109482;1277;22619;-64
2022/01/02 01:43:39;;;;;;;87.10;73.60;;;;;;;8.56;96.35;98609.55;109573;1274;22400;-64
2022/01/02 01:46:08;;;;;;;75.90;68.10;;;;;;;8.59;95.91;98607.14;109473;1277;22404;-64
2022/01/02 01:48:36;;;;;;;77.40;69.50;;;;;;;8.60;96.11;98603.48;109571;1274;22411;-64
2022/01/02 01:51:05;;;;;;;81.00;72.30;;;;;;;8.59;95.75;98609.77;109567;1274;22584;-64
2022/01/02 01:53:33;;;;;;;98.30;76.30;;;;;;;8.58;96.16;98606.64;109634;1274;22382;-65
2022/01/02 01:56:01;;;;;;;77.20;68.70;;;;;;;8.55;95.91;98612.45;109661;1274;22473;-64
2022/01/02 01:58:29;;;;;;;88.80;69.80;;;;;;;8.51;95.98;98609.55;109620;1274;23712;-64
2022/01/02 02:00:58;;;;;;;78.70;70.30;;;;;;;8.50;95.78;98606.88;109580;1274;22498;-64
2022/01/02 02:03:33;;;;;;;72.60;64.80;;;;;;;8.53;95.92;98604.50;109468;1276;23285;-64
2022/01/02 02:06:03;;;;;;;73.90;64.90;;;;;;;8.52;95.69;98594.45;109521;1274;23105;-64
2022/01/02 02:08:31;;;;;;;82.90;72.00;;;;;;;8.50;96.05;98599.20;109585;1274;22553;-64
2022/01/02 02:11:00;;;;;;;81.80;67.50;;;;;;;8.49;95.84;98598.54;109573;1274;22462;-64
2022/01/02 02:13:30;;;;;;;73.30;65.40;;;;;;;8.49;96.01;98598.21;109656;1274;22644;-64
2022/01/02 02:16:02;;;;;;;72.60;64.40;;;;;;;8.48;95.98;98600.52;109585;1274;22972;-64
2022/01/02 02:18:31;;;;;;;65.40;59.00;;;;;;;8.48;96.23;98600.54;109660;1274;22484;-64
2022/01/02 02:21:00;;;;;;;72.70;64.90;;;;;;;8.46;96.09;98595.05;109572;1274;22492;-64
2022/01/02 02:23:31;;;;;;;71.90;64.30;;;;;;;8.45;96.09;98590.16;109493;1276;22474;-64
2022/01/02 02:25:59;;;;;;;67.30;60.20;;;;;;;8.40;96.07;98581.39;109494;1277;22977;-64
2022/01/02 02:28:27;;;;;;;65.10;58.60;;;;;;;8.39;95.86;98576.27;109337;1274;412997;-64
2022/01/02 02:30:58;;;;;;;63.80;57.10;;;;;;;8.40;96.10;98569.73;109605;1274;23376;-64
2022/01/02 02:33:27;;;;;;;63.00;56.60;;;;;;;8.42;96.03;98561.11;109519;1277;22550;-64
2022/01/02 02:35:55;;;;;;;65.00;57.80;;;;;;;8.44;95.96;98560.13;109582;1274;23018;-64
2022/01/02 02:38:23;;;;;;;66.10;59.40;;;;;;;8.46;96.03;98559.16;109597;1274;23213;-63
2022/01/02 02:40:56;;;;;;;63.80;57.60;;;;;;;8.49;96.38;98552.12;109649;1274;22624;-65
2022/01/02 02:49:00;;;;;;;64.10;57.20;;;;;;;8.66;96.54;98551.05;109577;1274;22541;-64
2022/01/02 02:54:31;;;;;;;54.40;48.80;;;;;;;8.64;96.08;98552.65;109593;1274;22431;-64
2022/01/02 02:57:00;;;;;;;53.30;47.90;;;;;;;8.66;96.22;98553.89;109633;1274;22474;-64
2022/01/02 02:59:33;;;;;;;55.20;49.90;;;;;;;8.66;96.26;98553.67;109583;1274;23176;-64
2022/01/02 03:02:02;;;;;;;55.00;49.60;;;;;;;8.68;96.25;98548.73;109658;1274;22428;-64
2022/01/02 03:04:39;;;;;;;57.20;51.20;;;;;;;8.72;96.21;98548.78;109645;1274;22834;-64
2022/01/02 03:07:08;;;;;;;54.70;49.40;;;;;;;8.74;96.70;98543.36;109582;1274;22395;-64
2022/01/02 03:09:42;;;;;;;53.80;48.30;;;;;;;8.77;96.21;98539.31;109642;1274;22455;-66
2022/01/02 03:12:11;;;;;;;52.20;47.00;;;;;;;8.81;96.34;98533.35;109647;1274;23117;-64
2022/01/02 03:14:43;;;;;;;54.60;49.10;;;;;;;8.83;96.16;98530.88;109454;1277;22526;-64
2022/01/02 03:17:12;;;;;;;55.90;50.50;;;;;;;8.86;95.97;98536.73;109472;1276;22657;-64
2022/01/02 03:19:40;;;;;;;53.90;48.60;;;;;;;8.89;96.14;98534.52;109671;1274;22438;-64
2022/01/02 03:22:12;;;;;;;52.90;47.60;;;;;;;8.92;96.25;98529.73;109496;1276;23514;-64
2022/01/02 03:24:40;;;;;;;51.30;46.00;;;;;;;8.95;95.95;98522.89;109656;1274;22507;-64
2022/01/02 03:27:10;;;;;;;52.00;46.70;;;;;;;8.97;96.08;98516.92;109580;1274;22407;-64
2022/01/02 03:29:38;;;;;;;52.60;47.40;;;;;;;8.92;95.46;98519.51;109500;1275;23142;-64
2022/01/02 03:32:06;;;;;;;52.30;47.20;;;;;;;8.82;95.62;98522.27;109607;1274;22413;-64
2022/01/02 03:34:35;;;;;;;52.60;47.10;;;;;;;8.78;95.63;98519.65;109530;1275;22503;-64
2022/01/02 03:37:03;;;;;;;48.90;44.10;;;;;;;8.78;95.85;98510.52;109463;1277;22533;-64
2022/01/02 03:39:32;;;;;;;49.70;44.80;;;;;;;8.80;96.15;98503.94;109578;1274;22613;-64
2022/01/02 03:42:01;;;;;;;50.40;45.50;;;;;;;8.82;96.09;98509.21;109513;1277;23208;-64
2022/01/02 03:44:30;;;;;;;50.50;45.30;;;;;;;8.84;96.11;98511.41;109644;1274;23189;-64
2022/01/02 03:46:58;;;;;;;51.10;46.20;;;;;;;8.82;96.04;98506.10;109647;1274;23278;-63
2022/01/02 03:49:26;;;;;;;52.70;46.30;;;;;;;8.85;96.06;98503.02;109588;1274;22224;-64
2022/01/02 03:51:56;;;;;;;50.90;46.00;;;;;;;8.88;95.99;98495.61;109587;1274;22554;-64
2022/01/02 03:54:24;;;;;;;53.20;48.20;;;;;;;8.89;95.56;98494.58;109591;1274;22242;-63
2022/01/02 03:56:54;;;;;;;55.70;50.10;;;;;;;8.91;95.89;98484.20;109654;1274;22448;-64
2022/01/02 03:59:22;;;;;;;58.10;52.10;;;;;;;8.93;95.49;98478.65;109592;1274;22584;-64
2022/01/02 04:01:50;;;;;;;55.00;49.60;;;;;;;8.92;95.90;98476.19;109673;1272;22483;-64
2022/01/02 04:04:19;;;;;;;61.40;55.40;;;;;;;8.92;95.38;98478.71;109659;1274;22537;-64
2022/01/02 04:06:47;;;;;;;59.20;53.40;;;;;;;8.95;95.65;98476.89;109492;1276;22571;-63
2022/01/02 04:09:15;;;;;;;60.90;55.00;;;;;;;9.01;95.89;98482.39;109590;1274;22483;-63
2022/01/02 04:11:44;;;;;;;44.20;39.70;;;;;;;9.03;95.73;98483.58;109521;1277;22430;-64
2022/01/02 04:14:12;;;;;;;48.10;43.70;;;;;;;9.04;95.76;98482.81;109642;1274;22557;-64
2022/01/02 04:16:40;;;;;;;48.20;43.50;;;;;;;9.02;95.58;98481.48;109655;1274;22524;-64
2022/01/02 04:19:09;;;;;;;44.00;39.70;;;;;;;9.01;95.34;98481.20;109590;1274;22328;-64
2022/01/02 04:21:38;;;;;;;43.10;38.70;;;;;;;8.99;95.10;98479.77;109482;1276;22496;-64
2022/01/02 04:24:06;;;;;;;52.30;47.20;;;;;;;9.01;95.69;98476.73;109681;1274;23237;-64
2022/01/02 04:26:35;;;;;;;46.80;42.40;;;;;;;9.07;95.79;98479.90;109610;1276;23130;-64
2022/01/02 04:29:03;;;;;;;48.40;43.80;;;;;;;9.12;95.77;98472.48;109645;1274;22623;-63
2022/01/02 04:31:32;;;;;;;49.60;44.80;;;;;;;9.14;95.80;98469.55;109485;1276;22784;-64
2022/01/02 04:34:00;;;;;;;50.60;45.80;;;;;;;9.15;95.34;98456.70;109597;1274;23185;-64
2022/01/02 04:36:29;;;;;;;50.70;45.80;;;;;;;9.13;94.96;98453.96;109510;1276;23618;-64
2022/01/02 04:38:57;;;;;;;54.50;49.20;;;;;;;9.12;95.41;98448.80;109644;1274;23285;-64
2022/01/02 04:41:25;;;;;;;52.70;47.60;;;;;;;9.12;95.58;98455.20;109659;1274;23192;-62
2022/01/02 04:43:53;;;;;;;51.70;46.70;;;;;;;9.13;95.27;98455.10;109654;1274;23160;-62
2022/01/02 04:46:21;;;;;;;45.00;40.60;;;;;;;9.13;95.06;98457.95;109494;1276;22471;-62
2022/01/02 04:48:49;;;;;;;46.30;42.10;;;;;;;9.08;94.68;98456.45;109630;1274;22519;-63
2022/01/02 04:51:17;;;;;;;48.20;43.90;;;;;;;9.07;95.05;98452.96;109635;1274;22586;-63
2022/01/02 04:53:48;;;;;;;52.00;47.40;;;;;;;9.08;95.09;98445.42;109585;1274;22459;-62
2022/01/02 04:56:17;;;;;;;53.30;48.30;;;;;;;9.06;95.13;98436.95;109479;1277;23246;-63
2022/01/02 04:58:46;;;;;;;55.50;50.40;;;;;;;9.03;94.66;98425.73;109641;1274;23338;-62
2022/01/02 05:01:16;;;;;;;53.20;48.50;;;;;;;9.02;94.89;98420.88;109637;1274;22554;-63
2022/01/02 05:03:45;;;;;;;60.00;54.30;;;;;;;9.00;94.34;98421.17;109622;1274;22534;-63
2022/01/02 05:06:14;;;;;;;62.20;56.30;;;;;;;8.99;94.75;98419.02;109467;1275;22525;-64
2022/01/02 05:08:45;;;;;;;53.30;48.40;;;;;;;8.96;94.82;98408.66;109637;1274;22575;-64
2022/01/02 05:11:14;;;;;;;54.20;48.90;;;;;;;8.97;95.03;98411.62;109581;1274;22421;-64
2022/01/02 05:13:43;;;;;;;53.90;49.00;;;;;;;8.97;94.58;98404.98;109633;1272;22468;-64
2022/01/02 05:16:12;;;;;;;54.20;49.30;;;;;;;8.96;94.45;98401.30;109638;1274;22542;-63
2022/01/02 05:18:40;;;;;;;58.30;52.50;;;;;;;8.93;94.57;98393.95;109493;1274;22529;-63
2022/01/02 05:21:09;;;;;;;56.00;50.70;;;;;;;8.90;94.27;98389.49;109563;1274;22229;-63
2022/01/02 05:23:37;;;;;;;51.50;46.50;;;;;;;8.88;94.40;98384.45;109637;1273;22455;-63
2022/01/02 05:26:06;;;;;;;50.00;44.90;;;;;;;8.85;94.33;98376.02;109572;1274;22398;-63
2022/01/02 05:28:36;;;;;;;51.10;46.30;;;;;;;8.85;94.48;98370.71;109604;1274;23170;-63
2022/01/02 05:31:05;;;;;;;49.80;45.20;;;;;;;8.85;94.52;98364.73;109636;1274;22545;-64
2022/01/02 05:33:34;;;;;;;50.10;45.50;;;;;;;8.83;94.67;98358.88;109483;1275;22521;-64
2022/01/02 05:36:03;;;;;;;45.70;41.20;;;;;;;8.80;94.81;98359.48;109512;1276;22633;-64
2022/01/02 05:38:31;;;;;;;46.40;42.00;;;;;;;8.78;94.55;98354.83;109642;1274;22429;-64
2022/01/02 05:40:59;;;;;;;46.90;42.20;;;;;;;8.78;94.34;98357.79;109653;1274;22889;-63
2022/01/02 05:43:29;;;;;;;43.60;39.20;;;;;;;8.77;94.23;98355.42;109599;1274;22552;-64
2022/01/02 05:46:03;;;;;;;44.70;40.50;;;;;;;8.74;94.45;98346.35;109333;1274;137463;-64
2022/01/02 05:48:33;;;;;;;46.80;42.30;;;;;;;8.69;94.43;98341.27;109480;1275;23412;-65
2022/01/02 05:51:02;;;;;;;46.50;42.00;;;;;;;8.66;94.54;98335.23;109519;1275;22451;-64
2022/01/02 05:53:31;;;;;;;45.00;40.90;;;;;;;8.65;94.57;98329.15;109476;1274;22830;-64
2022/01/02 05:56:05;;;;;;;;;;;;;;;8.66;94.36;98325.27;109652;1274;22908;-63
2022/01/02 05:58:39;;;;;;;43.50;39.50;;;;;;;8.66;94.39;98319.05;109592;1275;22386;-63
2022/01/02 06:01:09;;;;;;;45.80;41.70;;;;;;;8.66;94.50;98311.41;109573;1275;22406;-63
2022/01/02 06:03:38;;;;;;;46.30;41.60;;;;;;;8.65;94.73;98311.36;109567;1276;22492;-64
2022/01/02 06:06:06;;;;;;;43.70;39.40;;;;;;;8.62;94.58;98294.61;109584;1275;23059;-64
2022/01/02 06:08:35;;;;;;;43.90;39.60;;;;;;;8.62;94.17;98289.67;109639;1274;23121;-64
2022/01/02 06:11:07;;;;;;;48.60;43.90;;;;;;;8.58;93.96;98289.36;109470;1276;23163;-64
2022/01/02 06:13:42;;;;;;;50.90;45.90;;;;;;;8.57;94.19;98284.17;109382;1276;22544;-64
2022/01/02 06:16:12;;;;;;;53.90;48.80;;;;;;;8.54;94.43;98289.81;109504;1275;22508;-64
2022/01/02 06:18:41;;;;;;;49.10;44.10;;;;;;;8.50;94.21;98287.15;109483;1277;22413;-64
2022/01/02 06:21:09;;;;;;;46.10;41.70;;;;;;;8.45;93.79;98280.92;109494;1276;22291;-63
2022/01/02 06:23:38;;;;;;;44.30;40.10;;;;;;;8.44;94.11;98277.17;109594;1275;23120;-64
2022/01/02 06:26:06;;;;;;;47.10;42.80;;;;;;;8.42;93.65;98269.29;109582;1276;22536;-64
2022/01/02 06:28:35;;;;;;;48.60;44.00;;;;;;;8.40;93.97;98263.94;109456;1276;22623;-62
2022/01/02 06:31:03;;;;;;;47.60;43.20;;;;;;;8.36;94.18;98262.79;109492;1276;22451;-63
2022/01/02 06:33:34;;;;;;;45.10;40.80;;;;;;;8.30;93.91;98266.79;109490;1277;22526;-64
2022/01/02 06:36:02;;;;;;;42.30;38.50;;;;;;;8.26;94.08;98268.10;109413;1277;22378;-63
2022/01/02 06:38:30;;;;;;;44.20;40.10;;;;;;;8.22;93.52;98272.20;109496;1275;23157;-63
2022/01/02 06:40:58;;;;;;;43.10;39.30;;;;;;;8.19;93.63;98267.89;109479;1274;22491;-63
2022/01/02 06:43:26;;;;;;;45.90;41.90;;;;;;;8.14;93.58;98269.74;109498;1276;23161;-63
2022/01/02 06:45:54;;;;;;;44.30;40.30;;;;;;;8.08;93.40;98261.23;109463;1276;22491;-63
2022/01/02 06:48:22;;;;;;;43.50;39.70;;;;;;;8.01;93.45;98252.19;109606;1276;23228;-63
2022/01/02 06:50:55;;;;;;;42.60;39.00;;;;;;;7.94;93.55;98243.66;109492;1275;22474;-63
2022/01/02 06:53:30;;;;;;;41.20;37.70;;;;;;;7.88;93.26;98241.82;109566;1274;23219;-63
2022/01/02 06:56:04;;;;;;;40.10;36.60;;;;;;;7.84;93.42;98235.00;109585;1276;22265;-63
2022/01/02 06:58:38;;;;;;;41.50;37.80;;;;;;;7.83;93.33;98226.90;109594;1276;22747;-64
2022/01/02 07:01:16;;;;;;;38.10;34.80;;;;;;;7.80;93.50;98222.20;109477;1276;22466;-64
2022/01/02 07:03:50;;;;;;;33.90;30.70;;;;;;;7.75;93.75;98214.05;109484;1277;22463;-64
2022/01/02 07:06:21;;;;;;;31.40;28.60;;;;;;;7.71;93.34;98207.40;109484;1275;22637;-64
2022/01/02 07:08:57;;;;;;;29.90;27.30;;;;;;;7.68;93.13;98204.09;109606;1275;22497;-64
2022/01/02 07:11:25;;;;;;;30.60;27.90;;;;;;;7.65;93.49;98201.24;109606;1276;22471;-64
2022/01/02 07:13:53;;;;;;;30.60;27.70;;;;;;;7.62;93.52;98201.95;109608;1275;22492;-64
2022/01/02 07:16:26;;;;;;;35.60;32.40;;;;;;;7.57;93.26;98205.02;109604;1275;22506;-64
2022/01/02 07:18:54;;;;;;;34.10;31.00;;;;;;;7.52;93.22;98203.48;109610;1275;23743;-64
2022/01/02 07:21:23;;;;;;;32.00;29.10;;;;;;;7.51;93.43;98202.19;109600;1275;23182;-64
2022/01/02 07:23:53;;;;;;;30.20;27.40;;;;;;;7.54;93.63;98201.85;109507;1275;22519;-64
2022/01/02 07:26:20;;;;;;;29.60;26.90;;;;;;;7.59;93.39;98192.68;109614;1275;22456;-64
2022/01/02 07:28:48;;;;;;;30.80;28.10;;;;;;;7.61;93.64;98185.48;109599;1273;23129;-64
2022/01/02 07:31:16;;;;;;;38.00;34.60;;;;;;;7.60;93.07;98177.98;109588;1275;23208;-64
2022/01/02 07:33:44;;;;;;;31.10;28.30;;;;;;;7.59;93.38;98176.64;109603;1275;22361;-63
2022/01/02 07:36:12;;;;;;;26.40;23.90;;;;;;;7.61;93.21;98171.45;109602;1275;22640;-64
2022/01/02 07:38:40;;;;;;;29.60;26.80;;;;;;;7.64;93.29;98174.38;109586;1275;22513;-64
2022/01/02 07:41:09;;;;;;;29.20;26.40;;;;;;;7.66;93.35;98174.15;109626;1275;23140;-64
2022/01/02 07:43:36;;;;;;;35.40;32.10;;;;;;;7.68;93.31;98171.73;109617;1275;22481;-64
2022/01/02 07:46:05;;;;;;;38.00;34.60;;;;;;;7.68;93.40;98169.42;109612;1275;22422;-64
2022/01/02 07:48:33;;;;;;;32.70;29.80;;;;;;;7.71;93.42;98162.77;109602;1275;22239;-63
2022/01/02 07:51:01;;;;;;;31.80;28.90;;;;;;;7.74;93.57;98151.98;109509;1275;22456;-63
2022/01/02 07:53:29;;;;;;;32.40;29.40;;;;;;;7.79;93.28;98148.05;109518;1275;22645;-63
2022/01/02 07:55:57;;;;;;;33.60;30.50;;;;;;;7.83;92.97;98142.77;109613;1275;22452;-64
2022/01/02 07:58:26;;;;;;;34.70;31.40;;;;;;;7.84;93.22;98141.10;109603;1275;22517;-64
2022/01/02 08:00:54;;;;;;;35.90;32.70;;;;;;;7.79;92.69;98139.67;109606;1275;23228;-65
2022/01/02 08:03:22;;;;;;;32.80;29.60;;;;;;;7.75;92.63;98126.92;109584;1275;22439;-64
2022/01/02 08:05:50;;;;;;;36.00;32.40;;;;;;;7.74;92.71;98112.45;109601;1276;22493;-65
2022/01/02 08:08:18;;;;;;;42.00;37.70;;;;;;;7.74;92.75;98112.98;109602;1275;22557;-64
2022/01/02 08:10:46;;;;;;;41.40;37.10;;;;;;;7.77;92.86;98108.84;109610;1275;23341;-64
2022/01/02 08:13:14;;;;;;;38.10;34.40;;;;;;;7.80;92.93;98106.02;109584;1275;22516;-64
2022/01/02 08:15:43;;;;;;;39.50;35.70;;;;;;;7.82;92.82;98101.55;109498;1276;22457;-64
2022/01/02 08:18:13;;;;;;;36.20;32.60;;;;;;;7.79;92.71;98094.61;109608;1276;22538;-64
2022/01/02 08:20:45;;;;;;;32.50;29.30;;;;;;;7.82;92.64;98094.01;109596;1275;22499;-64
2022/01/02 08:23:14;;;;;;;33.50;30.20;;;;;;;7.86;92.97;98091.79;109500;1276;22480;-65
2022/01/02 08:25:42;;;;;;;33.30;30.00;;;;;;;7.89;92.83;98093.27;109595;1275;22441;-64
2022/01/02 08:28:10;;;;;;;32.00;29.10;;;;;;;7.93;93.18;98098.27;109595;1275;22303;-64
2022/01/02 08:30:41;;;;;;;35.20;31.90;;;;;;;7.96;93.16;98098.16;109552;1276;23157;-64
2022/01/02 08:33:10;;;;;;;33.30;29.90;;;;;;;7.99;93.23;98097.61;109607;1274;22589;-64
2022/01/02 08:35:39;;;;;;;50.10;45.10;;;;;;;8.04;93.06;98100.55;109600;1275;22267;-63
2022/01/02 08:38:07;;;;;;;32.00;29.00;;;;;;;8.11;92.76;98095.84;109610;1275;22498;-64
2022/01/02 08:40:37;;;;;;;35.80;32.40;;;;;;;8.18;93.32;98100.73;109527;1276;23034;-64
2022/01/02 08:43:06;;;;;;;37.30;33.80;;;;;;;8.23;93.21;98095.06;109612;1275;22479;-64
2022/01/02 08:45:36;;;;;;;41.20;37.60;;;;;;;8.28;92.85;98091.86;109581;1275;22489;-63
2022/01/02 08:48:06;;;;;;;41.50;37.50;;;;;;;8.30;93.13;98081.34;109588;1276;22376;-64
2022/01/02 08:50:34;;;;;;;39.90;36.00;;;;;;;8.35;92.84;98079.36;109612;1275;23130;-64
2022/01/02 08:53:02;;;;;;;34.40;30.90;;;;;;;8.38;92.59;98075.38;109585;1275;22462;-64
2022/01/02 08:55:30;;;;;;;40.40;36.60;;;;;;;8.45;93.03;98070.23;109611;1275;22542;-65
2022/01/02 08:57:58;;;;;;;36.70;33.20;;;;;;;8.53;93.04;98075.12;109622;1275;22467;-64
2022/01/02 09:00:26;;;;;;;38.80;35.10;;;;;;;8.60;93.06;98067.60;109601;1275;22584;-65
2022/01/02 09:02:54;;;;;;;33.10;29.80;;;;;;;8.66;93.00;98063.36;109598;1275;23056;-63
2022/01/02 09:05:24;;;;;;;32.40;27.60;;;;;;;8.72;92.64;98064.92;109591;1275;22522;-65
2022/01/02 09:07:53;;;;;;;28.00;25.40;;;;;;;8.79;92.74;98062.49;109595;1275;22461;-64
2022/01/02 09:10:22;;;;;;;26.70;24.20;;;;;;;8.87;92.52;98058.88;109598;1275;23228;-64
2022/01/02 09:12:50;;;;;;;25.40;23.00;;;;;;;8.94;92.46;98057.23;109589;1275;22510;-64
2022/01/02 09:15:18;;;;;;;26.80;24.10;;;;;;;9.00;92.53;98062.34;109587;1275;22430;-64
2022/01/02 09:17:46;;;;;;;26.20;23.50;;;;;;;9.04;92.61;98061.92;109477;1275;22444;-64
2022/01/02 09:20:16;;;;;;;26.40;23.70;;;;;;;9.12;92.89;98060.29;109599;1275;22477;-65
2022/01/02 09:22:46;;;;;;;28.30;25.60;;;;;;;9.23;92.57;98057.22;109614;1275;22418;-65
2022/01/02 09:25:14;;;;;;;25.60;23.00;;;;;;;9.34;92.61;98051.60;109573;1275;22528;-65
2022/01/02 09:27:44;;;;;;;24.90;22.20;;;;;;;9.43;92.28;98048.70;109624;1276;23182;-63
2022/01/02 09:30:12;;;;;;;23.10;21.00;;;;;;;9.46;92.45;98043.35;109576;1275;22570;-65
2022/01/02 09:32:41;;;;;;;22.80;20.60;;;;;;;9.49;92.09;98041.52;109592;1275;22396;-64
2022/01/02 09:35:10;;;;;;;24.00;21.60;;;;;;;9.55;92.00;98045.17;109595;1275;22335;-65
2022/01/02 09:37:39;;;;;;;22.90;20.80;;;;;;;9.61;91.97;98041.81;109608;1275;23113;-64
2022/01/02 09:40:08;;;;;;;32.50;29.70;;;;;;;9.69;92.00;98050.48;109477;1275;22645;-64
2022/01/02 09:42:37;;;;;;;31.40;28.70;;;;;;;9.75;92.15;98043.84;109600;1275;22486;-64
2022/01/02 09:45:07;;;;;;;30.50;27.60;;;;;;;9.82;91.80;98037.13;109609;1275;22467;-64
2022/01/02 09:47:36;;;;;;;28.00;25.10;;;;;;;9.89;91.93;98031.91;109606;1275;23021;-64
2022/01/02 09:50:10;;;;;;;28.70;25.80;;;;;;;9.96;91.88;98030.96;109586;1275;22710;-63
2022/01/02 09:52:38;;;;;;;25.20;22.80;;;;;;;10.05;91.58;98029.16;109592;1275;22519;-63
2022/01/02 09:55:07;;;;;;;28.40;25.80;;;;;;;10.10;91.51;98025.85;109598;1274;22431;-64
2022/01/02 09:57:35;;;;;;;34.70;31.40;;;;;;;10.17;91.45;98029.31;109609;1275;22429;-64
2022/01/02 10:00:04;;;;;;;25.90;23.50;;;;;;;10.21;91.32;98026.48;109546;1276;22534;-64
2022/01/02 10:02:58;;;;;;;23.20;21.00;;;;;;;10.25;90.93;98028.00;109586;1276;22480;-65
2022/01/02 10:05:30;;;;;;;25.30;19.00;;;;;;;10.24;90.61;98025.38;109583;1275;22439;-64
2022/01/02 10:08:17;;;;;;;21.10;19.10;;;;;;;10.23;89.39;98022.77;109611;1275;22590;-64
2022/01/02 10:10:45;;;;;;;26.30;23.80;;;;;;;10.18;89.01;98027.04;109594;1275;23199;-64
2022/01/02 10:13:13;;;;;;;22.80;20.40;;;;;;;10.15;88.90;98018.79;109572;1275;22455;-64
2022/01/02 10:15:43;;;;;;;17.20;15.30;;;;;;;10.14;88.92;98019.75;109592;1275;24243;-64
2022/01/02 10:18:13;;;;;;;16.20;14.40;;;;;;;10.11;86.59;98008.66;109589;1275;23122;-64
2022/01/02 10:20:47;;;;;;;16.20;14.20;;;;;;;10.12;87.71;98002.46;109595;1275;23110;-65
2022/01/02 10:23:22;;;;;;;16.10;14.50;;;;;;;10.14;87.75;98000.86;109474;1274;22556;-62
2022/01/02 10:26:01;;;;;;;15.20;13.30;;;;;;;10.15;85.52;98005.90;109568;1275;22451;-64
2022/01/02 10:28:29;;;;;;;24.10;13.90;;;;;;;10.13;86.52;97999.09;109598;1275;22394;-64
2022/01/02 10:30:58;;;;;;;15.70;13.00;;;;;;;10.13;86.79;97996.52;109596;1275;22564;-62
2022/01/02 10:33:29;;;;;;;13.30;11.00;;;;;;;10.13;86.40;97990.77;109603;1275;22449;-64
2022/01/02 10:36:00;;;;;;;13.30;11.90;;;;;;;10.11;86.14;97995.27;109594;1275;23166;-63
2022/01/02 10:38:30;;;;;;;15.10;13.50;;;;;;;10.05;85.67;97992.88;109614;1275;22413;-66
2022/01/02 10:40:59;;;;;;;19.70;17.80;;;;;;;9.97;86.02;97987.77;109596;1275;22585;-65
2022/01/02 10:43:30;;;;;;;18.40;16.50;;;;;;;9.92;86.73;97980.84;109615;1275;22556;-65
2022/01/02 10:46:03;;;;;;;17.90;16.10;;;;;;;9.91;86.90;97988.55;109587;1275;22557;-65
2022/01/02 10:48:38;;;;;;;15.40;13.80;;;;;;;9.92;86.47;97981.27;109586;1275;23402;-64
2022/01/02 10:51:16;;;;;;;17.60;15.90;;;;;;;9.90;86.27;97986.64;109465;1275;137772;-65
2022/01/02 10:53:53;;;;;;;23.90;17.00;;;;;;;9.84;85.62;97980.48;109546;1276;22449;-64
2022/01/02 10:56:23;;;;;;;19.30;16.90;;;;;;;9.77;85.48;97979.92;109564;1273;22752;-64
2022/01/02 10:58:58;;;;;;;17.30;15.60;;;;;;;9.70;85.37;97970.56;109595;1275;22599;-64
2022/01/02 11:01:27;;;;;;;17.00;15.30;;;;;;;9.65;85.78;97971.42;109485;1276;22453;-65
2022/01/02 11:03:58;;;;;;;18.40;16.40;;;;;;;9.62;86.05;97960.71;109617;1275;23254;-64
2022/01/02 11:06:31;;;;;;;20.60;18.10;;;;;;;9.57;84.87;97949.98;109591;1276;22414;-64
2022/01/02 11:09:00;;;;;;;19.40;17.30;;;;;;;9.50;85.47;97949.05;109573;1276;23214;-64
2022/01/02 11:11:29;;;;;;;19.40;17.40;;;;;;;9.47;85.34;97934.02;109466;1276;22465;-63
2022/01/02 11:13:58;;;;;;;20.80;17.40;;;;;;;9.48;85.93;97930.20;109581;1275;22454;-64
2022/01/02 11:16:27;;;;;;;34.40;24.80;;;;;;;9.50;86.24;97924.30;109602;1275;23073;-64
2022/01/02 11:18:55;;;;;;;22.70;20.10;;;;;;;9.52;86.32;97920.27;109595;1275;23146;-64
2022/01/02 11:21:28;;;;;;;37.00;33.50;;;;;;;9.53;86.24;97913.77;109491;1275;137509;-64
2022/01/02 11:24:10;;;;;;;80.20;71.80;;;;;;;9.54;86.36;97912.28;109600;1275;23169;-64
2022/01/02 11:26:59;;;;;;;27.70;24.90;;;;;;;9.59;86.35;97910.46;109515;1276;23056;-64
2022/01/02 11:29:29;;;;;;;18.60;16.60;;;;;;;9.61;86.15;97912.36;109603;1276;22570;-63
2022/01/02 11:31:57;;;;;;;20.00;17.40;;;;;;;9.59;85.47;97907.60;109566;1275;22528;-64
2022/01/02 11:34:35;;;;;;;19.30;17.10;;;;;;;9.56;85.86;97903.46;109610;1275;23297;-64
2022/01/02 11:37:09;;;;;;;18.40;16.00;;;;;;;9.54;85.64;97903.73;109593;1275;22414;-64
2022/01/02 11:40:01;;;;;;;18.10;15.30;;;;;;;9.53;85.56;97899.19;109586;1275;22459;-64